sensor_id;sensor_type;location;lat;lon;timestamp;pressure;altitude;pressure_sealevel;temperature;humidity
64967;BME280;51710;38.732;-121.358;2023-07-30T00:02:15;100801.31;;;36.55;17.46
64967;BME280;51710;38.732;-121.358;2023-07-30T00:04:43;100788.59;;;36.54;17.49
64967;BME280;51710;38.732;-121.358;2023-07-30T00:07:09;100803.78;;;36.48;17.74
64967;BME280;51710;38.732;-121.358;2023-07-30T00:09:36;100790.91;;;36.44;18.47
64967;BME280;51710;38.732;-121.358;2023-07-30T00:12:04;100789.09;;;36.39;17.94
64967;BME280;51710;38.732;-121.358;2023-07-30T00:14:30;100785.81;;;36.37;17.14
64967;BME280;51710;38.732;-121.358;2023-07-30T00:16:57;100781.22;;;36.33;17.45
64967;BME280;51710;38.732;-121.358;2023-07-30T00:19:23;100791.66;;;36.27;18.53
64967;BME280;51710;38.732;-121.358;2023-07-30T00:21:49;100787.78;;;36.28;18.16
64967;BME280;51710;38.732;-121.358;2023-07-30T00:24:15;100778.94;;;36.26;18.21
64967;BME280;51710;38.732;-121.358;2023-07-30T00:26:42;100781.22;;;36.24;18.52
64967;BME280;51710;38.732;-121.358;2023-07-30T00:29:08;100784.66;;;36.21;18.22
64967;BME280;51710;38.732;-121.358;2023-07-30T00:31:34;100778.63;;;36.19;18.89
64967;BME280;51710;38.732;-121.358;2023-07-30T00:34:01;100777.81;;;36.18;18.40
64967;BME280;51710;38.732;-121.358;2023-07-30T00:36:27;100768.97;;;36.16;18.60
64967;BME280;51710;38.732;-121.358;2023-07-30T00:38:53;100766.53;;;36.15;18.00
64967;BME280;51710;38.732;-121.358;2023-07-30T00:41:20;100773.69;;;36.07;18.71
64967;BME280;51710;38.732;-121.358;2023-07-30T00:43:46;100764.91;;;36.05;18.73
64967;BME280;51710;38.732;-121.358;2023-07-30T00:46:13;100758.03;;;36.03;19.15
64967;BME280;51710;38.732;-121.358;2023-07-30T00:48:39;100762.31;;;36.00;19.39
64967;BME280;51710;38.732;-121.358;2023-07-30T00:51:06;100764.25;;;36.00;19.76
64967;BME280;51710;38.732;-121.358;2023-07-30T00:53:33;100760.00;;;35.94;19.77
64967;BME280;51710;38.732;-121.358;2023-07-30T00:56:00;100755.94;;;35.91;19.85
64967;BME280;51710;38.732;-121.358;2023-07-30T00:58:26;100754.72;;;35.84;19.60
64967;BME280;51710;38.732;-121.358;2023-07-30T01:00:54;100753.75;;;35.80;20.03
64967;BME280;51710;38.732;-121.358;2023-07-30T01:03:21;100760.94;;;35.72;20.45
64967;BME280;51710;38.732;-121.358;2023-07-30T01:05:47;100755.69;;;35.71;20.26
64967;BME280;51710;38.732;-121.358;2023-07-30T01:08:13;100756.16;;;35.64;20.28
64967;BME280;51710;38.732;-121.358;2023-07-30T01:10:40;100746.72;;;35.57;20.30
64967;BME280;51710;38.732;-121.358;2023-07-30T01:13:08;100748.81;;;35.51;20.31
64967;BME280;51710;38.732;-121.358;2023-07-30T01:15:35;100749.75;;;35.47;20.32
64967;BME280;51710;38.732;-121.358;2023-07-30T01:18:03;100745.53;;;35.41;20.22
64967;BME280;51710;38.732;-121.358;2023-07-30T01:20:32;100745.47;;;35.32;20.18
64967;BME280;51710;38.732;-121.358;2023-07-30T01:22:59;100744.78;;;35.27;20.52
64967;BME280;51710;38.732;-121.358;2023-07-30T01:25:28;100750.97;;;35.24;20.25
64967;BME280;51710;38.732;-121.358;2023-07-30T01:27:59;100742.16;;;35.22;20.44
64967;BME280;51710;38.732;-121.358;2023-07-30T01:30:32;100744.94;;;35.22;20.59
64967;BME280;51710;38.732;-121.358;2023-07-30T01:33:01;100741.16;;;35.17;20.73
64967;BME280;51710;38.732;-121.358;2023-07-30T01:35:30;100747.34;;;35.14;20.59
64967;BME280;51710;38.732;-121.358;2023-07-30T01:37:57;100742.75;;;35.10;20.16
64967;BME280;51710;38.732;-121.358;2023-07-30T01:40:24;100742.56;;;35.06;20.61
64967;BME280;51710;38.732;-121.358;2023-07-30T01:42:51;100745.16;;;35.03;20.18
64967;BME280;51710;38.732;-121.358;2023-07-30T01:45:17;100740.91;;;34.97;20.60
64967;BME280;51710;38.732;-121.358;2023-07-30T01:47:44;100742.97;;;34.91;20.88
64967;BME280;51710;38.732;-121.358;2023-07-30T01:50:10;100746.38;;;34.88;20.83
64967;BME280;51710;38.732;-121.358;2023-07-30T01:52:36;100748.78;;;34.81;21.07
64967;BME280;51710;38.732;-121.358;2023-07-30T01:55:03;100746.16;;;34.76;20.94
64967;BME280;51710;38.732;-121.358;2023-07-30T01:57:29;100747.59;;;34.74;21.33
64967;BME280;51710;38.732;-121.358;2023-07-30T01:59:55;100748.94;;;34.76;20.86
64967;BME280;51710;38.732;-121.358;2023-07-30T02:02:21;100749.84;;;34.72;21.03
64967;BME280;51710;38.732;-121.358;2023-07-30T02:04:48;100754.41;;;34.68;21.13
64967;BME280;51710;38.732;-121.358;2023-07-30T02:07:14;100760.56;;;34.65;21.45
64967;BME280;51710;38.732;-121.358;2023-07-30T02:09:40;100754.97;;;34.56;21.04
64967;BME280;51710;38.732;-121.358;2023-07-30T02:12:07;100763.91;;;34.53;21.16
64967;BME280;51710;38.732;-121.358;2023-07-30T02:14:34;100768.63;;;34.53;21.55
64967;BME280;51710;38.732;-121.358;2023-07-30T02:17:00;100759.44;;;34.44;21.56
64967;BME280;51710;38.732;-121.358;2023-07-30T02:19:26;100767.66;;;34.35;21.40
64967;BME280;51710;38.732;-121.358;2023-07-30T02:21:52;100761.41;;;34.30;21.80
64967;BME280;51710;38.732;-121.358;2023-07-30T02:24:19;100764.94;;;34.22;22.34
64967;BME280;51710;38.732;-121.358;2023-07-30T02:26:45;100763.78;;;34.23;22.53
64967;BME280;51710;38.732;-121.358;2023-07-30T02:29:11;100771.81;;;34.24;22.02
64967;BME280;51710;38.732;-121.358;2023-07-30T02:31:37;100770.59;;;34.17;21.99
64967;BME280;51710;38.732;-121.358;2023-07-30T02:34:03;100784.34;;;34.08;22.94
64967;BME280;51710;38.732;-121.358;2023-07-30T02:36:30;100783.75;;;33.97;22.17
64967;BME280;51710;38.732;-121.358;2023-07-30T02:38:56;100777.59;;;33.87;22.45
64967;BME280;51710;38.732;-121.358;2023-07-30T02:41:22;100779.06;;;33.71;22.52
64967;BME280;51710;38.732;-121.358;2023-07-30T02:43:48;100783.16;;;33.60;23.67
64967;BME280;51710;38.732;-121.358;2023-07-30T02:46:14;100770.38;;;33.50;23.53
64967;BME280;51710;38.732;-121.358;2023-07-30T02:48:41;100773.66;;;33.52;23.86
64967;BME280;51710;38.732;-121.358;2023-07-30T02:51:07;100776.84;;;33.46;24.43
64967;BME280;51710;38.732;-121.358;2023-07-30T02:53:33;100788.03;;;33.36;24.27
64967;BME280;51710;38.732;-121.358;2023-07-30T02:55:59;100782.09;;;33.29;24.81
64967;BME280;51710;38.732;-121.358;2023-07-30T02:58:26;100784.03;;;33.15;24.88
64967;BME280;51710;38.732;-121.358;2023-07-30T03:00:52;100788.81;;;32.95;25.37
64967;BME280;51710;38.732;-121.358;2023-07-30T03:03:18;100782.19;;;32.78;24.96
64967;BME280;51710;38.732;-121.358;2023-07-30T03:05:44;100779.94;;;32.66;25.85
64967;BME280;51710;38.732;-121.358;2023-07-30T03:08:11;100786.25;;;32.53;25.92
64967;BME280;51710;38.732;-121.358;2023-07-30T03:10:37;100785.06;;;32.41;26.58
64967;BME280;51710;38.732;-121.358;2023-07-30T03:13:03;100787.44;;;32.29;26.67
64967;BME280;51710;38.732;-121.358;2023-07-30T03:15:29;100786.22;;;32.16;26.66
64967;BME280;51710;38.732;-121.358;2023-07-30T03:17:56;100786.97;;;32.03;26.98
64967;BME280;51710;38.732;-121.358;2023-07-30T03:20:22;100789.34;;;31.91;26.68
64967;BME280;51710;38.732;-121.358;2023-07-30T03:22:48;100799.94;;;31.79;26.99
64967;BME280;51710;38.732;-121.358;2023-07-30T03:25:14;100800.91;;;31.69;27.17
64967;BME280;51710;38.732;-121.358;2023-07-30T03:27:41;100796.41;;;31.55;26.81
64967;BME280;51710;38.732;-121.358;2023-07-30T03:30:07;100802.63;;;31.42;26.99
64967;BME280;51710;38.732;-121.358;2023-07-30T03:32:34;100804.91;;;31.30;27.11
64967;BME280;51710;38.732;-121.358;2023-07-30T03:35:01;100814.41;;;31.19;26.95
64967;BME280;51710;38.732;-121.358;2023-07-30T03:37:27;100811.75;;;31.09;27.28
64967;BME280;51710;38.732;-121.358;2023-07-30T03:39:53;100815.72;;;30.98;27.33
64967;BME280;51710;38.732;-121.358;2023-07-30T03:42:19;100813.06;;;30.87;27.48
64967;BME280;51710;38.732;-121.358;2023-07-30T03:44:46;100811.19;;;30.78;27.73
64967;BME280;51710;38.732;-121.358;2023-07-30T03:47:12;100806.31;;;30.70;27.66
64967;BME280;51710;38.732;-121.358;2023-07-30T03:49:38;100810.78;;;30.61;27.94
64967;BME280;51710;38.732;-121.358;2023-07-30T03:52:04;100814.66;;;30.55;27.67
64967;BME280;51710;38.732;-121.358;2023-07-30T03:54:31;100812.81;;;30.45;27.78
64967;BME280;51710;38.732;-121.358;2023-07-30T03:56:57;100818.66;;;30.34;28.20
64967;BME280;51710;38.732;-121.358;2023-07-30T03:59:23;100822.03;;;30.26;28.14
64967;BME280;51710;38.732;-121.358;2023-07-30T04:01:50;100817.41;;;30.16;28.25
64967;BME280;51710;38.732;-121.358;2023-07-30T04:04:16;100816.34;;;30.07;28.65
64967;BME280;51710;38.732;-121.358;2023-07-30T04:06:42;100822.41;;;29.99;28.48
64967;BME280;51710;38.732;-121.358;2023-07-30T04:09:09;100820.00;;;29.88;28.76
64967;BME280;51710;38.732;-121.358;2023-07-30T04:11:35;100819.22;;;29.77;29.05
64967;BME280;51710;38.732;-121.358;2023-07-30T04:14:01;100830.81;;;29.69;28.85
64967;BME280;51710;38.732;-121.358;2023-07-30T04:16:30;100826.69;;;29.61;28.95
64967;BME280;51710;38.732;-121.358;2023-07-30T04:18:56;100828.63;;;29.56;28.72
64967;BME280;51710;38.732;-121.358;2023-07-30T04:21:23;100831.66;;;29.49;28.64
64967;BME280;51710;38.732;-121.358;2023-07-30T04:23:49;100828.38;;;29.42;29.09
64967;BME280;51710;38.732;-121.358;2023-07-30T04:26:16;100832.50;;;29.35;29.24
64967;BME280;51710;38.732;-121.358;2023-07-30T04:28:42;100837.47;;;29.28;29.18
64967;BME280;51710;38.732;-121.358;2023-07-30T04:31:08;100830.38;;;29.17;29.21
64967;BME280;51710;38.732;-121.358;2023-07-30T04:33:34;100831.44;;;29.06;29.42
64967;BME280;51710;38.732;-121.358;2023-07-30T04:36:01;100829.00;;;28.94;29.47
64967;BME280;51710;38.732;-121.358;2023-07-30T04:38:28;100838.03;;;28.85;29.50
64967;BME280;51710;38.732;-121.358;2023-07-30T04:40:58;100836.38;;;28.73;29.58
64967;BME280;51710;38.732;-121.358;2023-07-30T04:43:24;100843.25;;;28.66;29.34
64967;BME280;51710;38.732;-121.358;2023-07-30T04:45:50;100843.50;;;28.59;29.37
64967;BME280;51710;38.732;-121.358;2023-07-30T04:48:17;100856.66;;;28.52;29.98
64967;BME280;51710;38.732;-121.358;2023-07-30T04:50:43;100857.72;;;28.46;29.72
64967;BME280;51710;38.732;-121.358;2023-07-30T04:53:09;100865.66;;;28.38;29.95
64967;BME280;51710;38.732;-121.358;2023-07-30T04:55:35;100865.66;;;28.28;30.21
64967;BME280;51710;38.732;-121.358;2023-07-30T04:58:02;100877.38;;;28.18;30.24
64967;BME280;51710;38.732;-121.358;2023-07-30T05:00:29;100875.97;;;28.11;29.92
64967;BME280;51710;38.732;-121.358;2023-07-30T05:02:55;100876.22;;;28.04;30.42
64967;BME280;51710;38.732;-121.358;2023-07-30T05:05:21;100884.44;;;27.99;30.39
64967;BME280;51710;38.732;-121.358;2023-07-30T05:07:48;100876.75;;;27.91;30.27
64967;BME280;51710;38.732;-121.358;2023-07-30T05:10:14;100881.59;;;27.84;30.47
64967;BME280;51710;38.732;-121.358;2023-07-30T05:12:41;100881.03;;;27.77;30.39
64967;BME280;51710;38.732;-121.358;2023-07-30T05:15:08;100882.91;;;27.71;30.83
64967;BME280;51710;38.732;-121.358;2023-07-30T05:17:34;100882.06;;;27.66;30.86
64967;BME280;51710;38.732;-121.358;2023-07-30T05:20:01;100884.19;;;27.59;31.01
64967;BME280;51710;38.732;-121.358;2023-07-30T05:22:27;100887.44;;;27.51;31.08
64967;BME280;51710;38.732;-121.358;2023-07-30T05:24:53;100884.63;;;27.41;31.28
64967;BME280;51710;38.732;-121.358;2023-07-30T05:27:20;100893.03;;;27.29;31.41
64967;BME280;51710;38.732;-121.358;2023-07-30T05:29:46;100889.38;;;27.19;31.29
64967;BME280;51710;38.732;-121.358;2023-07-30T05:32:12;100888.78;;;27.12;31.18
64967;BME280;51710;38.732;-121.358;2023-07-30T05:34:38;100888.16;;;27.05;31.38
64967;BME280;51710;38.732;-121.358;2023-07-30T05:37:05;100888.69;;;27.02;31.62
64967;BME280;51710;38.732;-121.358;2023-07-30T05:39:31;100890.28;;;26.98;31.43
64967;BME280;51710;38.732;-121.358;2023-07-30T05:41:57;100886.94;;;26.91;31.61
64967;BME280;51710;38.732;-121.358;2023-07-30T05:44:24;100891.81;;;26.84;31.48
64967;BME280;51710;38.732;-121.358;2023-07-30T05:46:50;100892.56;;;26.74;31.44
64967;BME280;51710;38.732;-121.358;2023-07-30T05:49:16;100892.75;;;26.67;31.76
64967;BME280;51710;38.732;-121.358;2023-07-30T05:51:42;100892.94;;;26.61;31.96
64967;BME280;51710;38.732;-121.358;2023-07-30T05:54:08;100897.50;;;26.55;31.87
64967;BME280;51710;38.732;-121.358;2023-07-30T05:56:35;100894.16;;;26.48;31.65
64967;BME280;51710;38.732;-121.358;2023-07-30T05:59:01;100891.91;;;26.40;31.97
64967;BME280;51710;38.732;-121.358;2023-07-30T06:01:27;100888.81;;;26.32;32.05
64967;BME280;51710;38.732;-121.358;2023-07-30T06:03:53;100886.53;;;26.24;32.04
64967;BME280;51710;38.732;-121.358;2023-07-30T06:06:20;100892.69;;;26.14;32.29
64967;BME280;51710;38.732;-121.358;2023-07-30T06:08:53;100887.69;;;26.06;32.51
64967;BME280;51710;38.732;-121.358;2023-07-30T06:11:20;100888.91;;;25.99;32.36
64967;BME280;51710;38.732;-121.358;2023-07-30T06:13:46;100885.28;;;25.93;32.38
64967;BME280;51710;38.732;-121.358;2023-07-30T06:16:13;100888.81;;;25.89;32.49
64967;BME280;51710;38.732;-121.358;2023-07-30T06:18:39;100894.41;;;25.82;32.81
64967;BME280;51710;38.732;-121.358;2023-07-30T06:21:08;100886.44;;;25.76;32.89
64967;BME280;51710;38.732;-121.358;2023-07-30T06:23:34;100885.53;;;25.70;32.97
64967;BME280;51710;38.732;-121.358;2023-07-30T06:26:00;100893.31;;;25.62;33.24
64967;BME280;51710;38.732;-121.358;2023-07-30T06:28:26;100884.50;;;25.54;33.19
64967;BME280;51710;38.732;-121.358;2023-07-30T06:30:53;100883.59;;;25.49;33.27
64967;BME280;51710;38.732;-121.358;2023-07-30T06:33:19;100892.53;;;25.44;33.27
64967;BME280;51710;38.732;-121.358;2023-07-30T06:35:45;100896.03;;;25.40;33.23
64967;BME280;51710;38.732;-121.358;2023-07-30T06:38:12;100887.25;;;25.38;33.22
64967;BME280;51710;38.732;-121.358;2023-07-30T06:40:38;100891.53;;;25.34;33.51
64967;BME280;51710;38.732;-121.358;2023-07-30T06:43:04;100896.41;;;25.32;33.31
64967;BME280;51710;38.732;-121.358;2023-07-30T06:45:30;100895.00;;;25.29;33.81
64967;BME280;51710;38.732;-121.358;2023-07-30T06:47:56;100900.13;;;25.26;33.44
64967;BME280;51710;38.732;-121.358;2023-07-30T06:50:23;100904.94;;;25.19;33.49
64967;BME280;51710;38.732;-121.358;2023-07-30T06:52:49;100900.47;;;25.13;33.47
64967;BME280;51710;38.732;-121.358;2023-07-30T06:55:15;100909.06;;;25.05;33.66
64967;BME280;51710;38.732;-121.358;2023-07-30T06:57:41;100905.66;;;24.98;33.85
64967;BME280;51710;38.732;-121.358;2023-07-30T07:00:08;100911.03;;;24.93;33.38
64967;BME280;51710;38.732;-121.358;2023-07-30T07:02:34;100904.91;;;24.86;33.79
64967;BME280;51710;38.732;-121.358;2023-07-30T07:05:00;100908.28;;;24.76;33.76
64967;BME280;51710;38.732;-121.358;2023-07-30T07:07:27;100903.56;;;24.72;33.68
64967;BME280;51710;38.732;-121.358;2023-07-30T07:09:53;100909.50;;;24.69;34.21
64967;BME280;51710;38.732;-121.358;2023-07-30T07:12:19;100906.19;;;24.67;34.16
64967;BME280;51710;38.732;-121.358;2023-07-30T07:14:45;100900.41;;;24.63;33.66
64967;BME280;51710;38.732;-121.358;2023-07-30T07:17:12;100903.84;;;24.59;34.07
64967;BME280;51710;38.732;-121.358;2023-07-30T07:19:38;100902.91;;;24.53;34.00
64967;BME280;51710;38.732;-121.358;2023-07-30T07:22:05;100899.03;;;24.49;33.77
64967;BME280;51710;38.732;-121.358;2023-07-30T07:24:31;100904.97;;;24.46;33.79
64967;BME280;51710;38.732;-121.358;2023-07-30T07:26:58;100898.34;;;24.42;33.85
64967;BME280;51710;38.732;-121.358;2023-07-30T07:29:25;100901.78;;;24.37;33.92
64967;BME280;51710;38.732;-121.358;2023-07-30T07:31:51;100907.72;;;24.34;34.22
64967;BME280;51710;38.732;-121.358;2023-07-30T07:34:17;100898.97;;;24.32;34.37
64967;BME280;51710;38.732;-121.358;2023-07-30T07:36:43;100894.03;;;24.29;34.15
64967;BME280;51710;38.732;-121.358;2023-07-30T07:39:10;100885.28;;;24.27;34.08
64967;BME280;51710;38.732;-121.358;2023-07-30T07:41:37;100885.75;;;24.24;34.29
64967;BME280;51710;38.732;-121.358;2023-07-30T07:44:03;100885.16;;;24.22;34.23
64967;BME280;51710;38.732;-121.358;2023-07-30T07:46:29;100884.81;;;24.19;34.49
64967;BME280;51710;38.732;-121.358;2023-07-30T07:48:56;100875.47;;;24.15;34.26
64967;BME280;51710;38.732;-121.358;2023-07-30T07:51:22;100867.47;;;24.08;34.24
64967;BME280;51710;38.732;-121.358;2023-07-30T07:53:48;100871.97;;;24.03;34.41
64967;BME280;51710;38.732;-121.358;2023-07-30T07:56:14;100875.66;;;23.97;34.71
64967;BME280;51710;38.732;-121.358;2023-07-30T07:58:40;100878.47;;;23.90;34.83
64967;BME280;51710;38.732;-121.358;2023-07-30T08:01:08;100884.06;;;23.84;34.89
64967;BME280;51710;38.732;-121.358;2023-07-30T08:03:35;100883.13;;;23.78;35.10
64967;BME280;51710;38.732;-121.358;2023-07-30T08:06:01;100884.69;;;23.74;35.37
64967;BME280;51710;38.732;-121.358;2023-07-30T08:08:27;100881.38;;;23.72;35.28
64967;BME280;51710;38.732;-121.358;2023-07-30T08:10:54;100885.38;;;23.70;35.37
64967;BME280;51710;38.732;-121.358;2023-07-30T08:13:20;100884.00;;;23.67;35.54
64967;BME280;51710;38.732;-121.358;2023-07-30T08:15:46;100883.41;;;23.65;35.30
64967;BME280;51710;38.732;-121.358;2023-07-30T08:18:13;100892.50;;;23.59;35.42
64967;BME280;51710;38.732;-121.358;2023-07-30T08:20:39;100890.50;;;23.55;35.48
64967;BME280;51710;38.732;-121.358;2023-07-30T08:23:05;100882.59;;;23.53;35.79
64967;BME280;51710;38.732;-121.358;2023-07-30T08:25:32;100884.72;;;23.51;35.57
64967;BME280;51710;38.732;-121.358;2023-07-30T08:27:58;100877.63;;;23.50;35.82
64967;BME280;51710;38.732;-121.358;2023-07-30T08:30:25;100879.50;;;23.50;35.84
64967;BME280;51710;38.732;-121.358;2023-07-30T08:32:51;100872.66;;;23.47;35.77
64967;BME280;51710;38.732;-121.358;2023-07-30T08:35:17;100874.78;;;23.45;35.53
64967;BME280;51710;38.732;-121.358;2023-07-30T08:37:43;100874.78;;;23.45;35.95
64967;BME280;51710;38.732;-121.358;2023-07-30T08:40:10;100866.06;;;23.43;36.00
64967;BME280;51710;38.732;-121.358;2023-07-30T08:42:37;100871.50;;;23.43;35.98
64967;BME280;51710;38.732;-121.358;2023-07-30T08:45:06;100869.34;;;23.45;35.84
64967;BME280;51710;38.732;-121.358;2023-07-30T08:47:34;100865.22;;;23.42;35.78
64967;BME280;51710;38.732;-121.358;2023-07-30T08:50:01;100862.13;;;23.39;36.07
64967;BME280;51710;38.732;-121.358;2023-07-30T08:52:29;100854.31;;;23.31;36.06
64967;BME280;51710;38.732;-121.358;2023-07-30T08:54:56;100854.66;;;23.23;36.17
64967;BME280;51710;38.732;-121.358;2023-07-30T08:57:24;100846.63;;;23.16;36.26
64967;BME280;51710;38.732;-121.358;2023-07-30T09:00:02;100849.00;;;23.13;36.31
64967;BME280;51710;38.732;-121.358;2023-07-30T09:05:08;100860.78;;;23.07;36.51
64967;BME280;51710;38.732;-121.358;2023-07-30T09:07:34;100857.28;;;23.06;36.59
64967;BME280;51710;38.732;-121.358;2023-07-30T09:10:01;100868.34;;;23.05;36.58
64967;BME280;51710;38.732;-121.358;2023-07-30T09:12:31;100864.22;;;23.02;36.60
64967;BME280;51710;38.732;-121.358;2023-07-30T09:14:58;100864.47;;;23.01;36.76
64967;BME280;51710;38.732;-121.358;2023-07-30T09:17:25;100863.88;;;22.99;36.81
64967;BME280;51710;38.732;-121.358;2023-07-30T09:19:52;100851.81;;;22.95;36.99
64967;BME280;51710;38.732;-121.358;2023-07-30T09:22:29;100853.34;;;22.91;36.88
64967;BME280;51710;38.732;-121.358;2023-07-30T09:24:57;100854.03;;;22.86;36.92
64967;BME280;51710;38.732;-121.358;2023-07-30T09:27:25;100856.41;;;22.83;36.91
64967;BME280;51710;38.732;-121.358;2023-07-30T09:30:00;100862.78;;;22.77;37.01
64967;BME280;51710;38.732;-121.358;2023-07-30T09:32:28;100858.88;;;22.73;37.07
64967;BME280;51710;38.732;-121.358;2023-07-30T09:34:55;100850.84;;;22.66;37.25
64967;BME280;51710;38.732;-121.358;2023-07-30T09:37:21;100852.34;;;22.62;37.38
64967;BME280;51710;38.732;-121.358;2023-07-30T09:39:48;100836.78;;;22.58;37.32
64967;BME280;51710;38.732;-121.358;2023-07-30T09:42:14;100842.00;;;22.53;37.67
64967;BME280;51710;38.732;-121.358;2023-07-30T09:44:41;100836.44;;;22.48;37.64
64967;BME280;51710;38.732;-121.358;2023-07-30T09:47:10;100838.81;;;22.44;37.69
64967;BME280;51710;38.732;-121.358;2023-07-30T09:49:37;100844.94;;;22.40;38.04
64967;BME280;51710;38.732;-121.358;2023-07-30T09:52:05;100840.78;;;22.37;38.06
64967;BME280;51710;38.732;-121.358;2023-07-30T09:54:32;100846.31;;;22.30;37.80
64967;BME280;51710;38.732;-121.358;2023-07-30T09:56:59;100839.13;;;22.24;37.96
64967;BME280;51710;38.732;-121.358;2023-07-30T09:59:25;100848.75;;;22.20;38.27
64967;BME280;51710;38.732;-121.358;2023-07-30T10:01:52;100849.22;;;22.17;38.39
64967;BME280;51710;38.732;-121.358;2023-07-30T10:04:22;100845.91;;;22.15;38.21
64967;BME280;51710;38.732;-121.358;2023-07-30T10:09:25;100842.59;;;22.13;38.47
64967;BME280;51710;38.732;-121.358;2023-07-30T10:11:53;100837.63;;;22.10;38.40
64967;BME280;51710;38.732;-121.358;2023-07-30T10:14:22;100844.56;;;22.06;38.43
64967;BME280;51710;38.732;-121.358;2023-07-30T10:16:52;100840.66;;;22.02;38.30
64967;BME280;51710;38.732;-121.358;2023-07-30T10:19:22;100834.84;;;21.99;38.39
64967;BME280;51710;38.732;-121.358;2023-07-30T10:21:49;100837.66;;;21.92;38.60
64967;BME280;51710;38.732;-121.358;2023-07-30T10:24:15;100840.22;;;21.87;38.31
64967;BME280;51710;38.732;-121.358;2023-07-30T10:26:41;100835.47;;;21.83;38.71
64967;BME280;51710;38.732;-121.358;2023-07-30T10:29:18;100836.78;;;21.80;38.80
64967;BME280;51710;38.732;-121.358;2023-07-30T10:31:55;100837.81;;;21.79;38.40
64967;BME280;51710;38.732;-121.358;2023-07-30T10:34:26;100834.50;;;21.77;38.38
64967;BME280;51710;38.732;-121.358;2023-07-30T10:36:55;100832.63;;;21.78;38.29
64967;BME280;51710;38.732;-121.358;2023-07-30T10:39:26;100830.09;;;21.76;38.56
64967;BME280;51710;38.732;-121.358;2023-07-30T10:41:57;100828.03;;;21.78;38.25
64967;BME280;51710;38.732;-121.358;2023-07-30T10:44:28;100825.75;;;21.75;38.21
64967;BME280;51710;38.732;-121.358;2023-07-30T10:47:01;100823.94;;;21.69;38.55
64967;BME280;51710;38.732;-121.358;2023-07-30T10:49:27;100819.88;;;21.60;38.46
64967;BME280;51710;38.732;-121.358;2023-07-30T10:51:55;100825.59;;;21.52;38.79
64967;BME280;51710;38.732;-121.358;2023-07-30T10:54:22;100829.22;;;21.46;39.06
64967;BME280;51710;38.732;-121.358;2023-07-30T10:56:49;100832.81;;;21.40;38.49
64967;BME280;51710;38.732;-121.358;2023-07-30T10:59:17;100834.31;;;21.36;38.88
64967;BME280;51710;38.732;-121.358;2023-07-30T11:01:45;100827.25;;;21.35;38.75
64967;BME280;51710;38.732;-121.358;2023-07-30T11:04:17;100831.00;;;21.34;39.03
64967;BME280;51710;38.732;-121.358;2023-07-30T11:06:49;100835.84;;;21.32;38.82
64967;BME280;51710;38.732;-121.358;2023-07-30T11:09:23;100831.06;;;21.27;39.10
64967;BME280;51710;38.732;-121.358;2023-07-30T11:11:52;100831.75;;;21.23;39.11
64967;BME280;51710;38.732;-121.358;2023-07-30T11:14:20;100831.16;;;21.21;39.29
64967;BME280;51710;38.732;-121.358;2023-07-30T11:16:54;100828.22;;;21.22;39.49
64967;BME280;51710;38.732;-121.358;2023-07-30T11:19:21;100824.66;;;21.22;39.50
64967;BME280;51710;38.732;-121.358;2023-07-30T11:21:48;100821.72;;;21.23;39.57
64967;BME280;51710;38.732;-121.358;2023-07-30T11:24:15;100834.84;;;21.27;39.35
64967;BME280;51710;38.732;-121.358;2023-07-30T11:26:42;100835.22;;;21.30;39.38
64967;BME280;51710;38.732;-121.358;2023-07-30T11:29:16;100833.13;;;21.32;39.46
64967;BME280;51710;38.732;-121.358;2023-07-30T11:31:43;100826.66;;;21.33;39.15
64967;BME280;51710;38.732;-121.358;2023-07-30T11:34:11;100831.47;;;21.31;39.33
64967;BME280;51710;38.732;-121.358;2023-07-30T11:36:38;100824.81;;;21.27;39.55
64967;BME280;51710;38.732;-121.358;2023-07-30T11:39:05;100835.09;;;21.25;39.37
64967;BME280;51710;38.732;-121.358;2023-07-30T11:41:32;100830.69;;;21.24;39.57
64967;BME280;51710;38.732;-121.358;2023-07-30T11:43:58;100833.63;;;21.22;39.58
64967;BME280;51710;38.732;-121.358;2023-07-30T11:46:25;100835.50;;;21.22;39.75
64967;BME280;51710;38.732;-121.358;2023-07-30T11:48:53;100832.78;;;21.22;39.90
64967;BME280;51710;38.732;-121.358;2023-07-30T11:51:29;100842.59;;;21.23;40.07
64967;BME280;51710;38.732;-121.358;2023-07-30T11:53:58;100837.41;;;21.21;39.91
64967;BME280;51710;38.732;-121.358;2023-07-30T11:56:32;100840.13;;;21.21;40.10
64967;BME280;51710;38.732;-121.358;2023-07-30T11:59:04;100837.03;;;21.18;40.09
64967;BME280;51710;38.732;-121.358;2023-07-30T12:01:32;100847.88;;;21.18;40.02
64967;BME280;51710;38.732;-121.358;2023-07-30T12:04:03;100847.88;;;21.18;40.05
64967;BME280;51710;38.732;-121.358;2023-07-30T12:06:50;100849.72;;;21.17;40.20
64967;BME280;51710;38.732;-121.358;2023-07-30T12:09:22;100845.38;;;21.16;40.04
64967;BME280;51710;38.732;-121.358;2023-07-30T12:11:56;100845.56;;;21.15;40.23
64967;BME280;51710;38.732;-121.358;2023-07-30T12:14:25;100838.97;;;21.11;40.18
64967;BME280;51710;38.732;-121.358;2023-07-30T12:16:56;100851.28;;;21.07;40.40
64967;BME280;51710;38.732;-121.358;2023-07-30T12:19:22;100851.75;;;21.04;40.55
64967;BME280;51710;38.732;-121.358;2023-07-30T12:21:49;100850.28;;;21.01;40.74
64967;BME280;51710;38.732;-121.358;2023-07-30T12:24:15;100854.06;;;21.00;40.82
64967;BME280;51710;38.732;-121.358;2023-07-30T12:26:41;100861.34;;;21.00;40.56